sensor_id;sensor_type;location;lat;lon;timestamp;pressure;altitude;pressure_sealevel;temperature;humidity
69524;BME280;56723;42.694;23.286;2023-03-15T00:01:20;94127.72;;;4.55;59.13
69524;BME280;56723;42.694;23.286;2023-03-15T00:03:49;94124.47;;;4.52;58.73
69524;BME280;56723;42.694;23.286;2023-03-15T00:06:16;94122.38;;;4.48;58.14
69524;BME280;56723;42.694;23.286;2023-03-15T00:08:43;94112.06;;;4.40;58.45
69524;BME280;56723;42.694;23.286;2023-03-15T00:11:15;94104.00;;;4.35;58.48
69524;BME280;56723;42.694;23.286;2023-03-15T00:13:43;94118.28;;;4.37;58.69
69524;BME280;56723;42.694;23.286;2023-03-15T00:16:11;94122.09;;;4.33;57.84
69524;BME280;56723;42.694;23.286;2023-03-15T00:18:37;94122.25;;;4.32;57.71
69524;BME280;56723;42.694;23.286;2023-03-15T00:21:04;94114.03;;;4.28;57.18
69524;BME280;56723;42.694;23.286;2023-03-15T00:23:31;94119.03;;;4.30;57.53
69524;BME280;56723;42.694;23.286;2023-03-15T00:25:58;94117.41;;;4.29;58.00
69524;BME280;56723;42.694;23.286;2023-03-15T00:28:25;94113.31;;;4.36;57.50
69524;BME280;56723;42.694;23.286;2023-03-15T00:31:16;94114.47;;;4.41;57.39
69524;BME280;56723;42.694;23.286;2023-03-15T00:33:43;94091.31;;;4.33;57.73
69524;BME280;56723;42.694;23.286;2023-03-15T00:36:11;94103.97;;;4.52;56.90
69524;BME280;56723;42.694;23.286;2023-03-15T00:38:39;94095.31;;;4.53;57.04
69524;BME280;56723;42.694;23.286;2023-03-15T00:41:09;94099.34;;;4.56;56.75
69524;BME280;56723;42.694;23.286;2023-03-15T00:43:36;94108.00;;;4.55;56.47
69524;BME280;56723;42.694;23.286;2023-03-15T00:46:04;94102.66;;;4.48;57.63
69524;BME280;56723;42.694;23.286;2023-03-15T00:48:32;94103.28;;;4.42;58.12
69524;BME280;56723;42.694;23.286;2023-03-15T00:51:09;94095.56;;;4.42;57.97
69524;BME280;56723;42.694;23.286;2023-03-15T00:53:38;94083.41;;;4.44;58.35
69524;BME280;56723;42.694;23.286;2023-03-15T00:56:12;94080.22;;;4.50;58.56
69524;BME280;56723;42.694;23.286;2023-03-15T00:58:40;94076.03;;;4.49;59.17
69524;BME280;56723;42.694;23.286;2023-03-15T01:01:09;94078.09;;;4.46;59.44
69524;BME280;56723;42.694;23.286;2023-03-15T01:03:36;94088.22;;;4.47;59.45
69524;BME280;56723;42.694;23.286;2023-03-15T01:06:09;94069.31;;;4.48;59.49
69524;BME280;56723;42.694;23.286;2023-03-15T01:08:36;94056.63;;;4.47;59.26
69524;BME280;56723;42.694;23.286;2023-03-15T01:11:05;94075.00;;;4.60;59.04
69524;BME280;56723;42.694;23.286;2023-03-15T01:13:32;94073.53;;;4.58;59.30
69524;BME280;56723;42.694;23.286;2023-03-15T01:15:59;94065.34;;;4.54;59.08
69524;BME280;56723;42.694;23.286;2023-03-15T01:18:26;94066.50;;;4.60;58.71
69524;BME280;56723;42.694;23.286;2023-03-15T01:20:55;94066.66;;;4.58;58.52
69524;BME280;56723;42.694;23.286;2023-03-15T01:23:22;94053.97;;;4.57;58.40
69524;BME280;56723;42.694;23.286;2023-03-15T01:25:49;94048.25;;;4.63;59.59
69524;BME280;56723;42.694;23.286;2023-03-15T01:28:16;94040.69;;;4.61;58.95
69524;BME280;56723;42.694;23.286;2023-03-15T01:30:50;94049.84;;;4.64;58.84
69524;BME280;56723;42.694;23.286;2023-03-15T01:33:18;94055.59;;;4.66;58.85
69524;BME280;56723;42.694;23.286;2023-03-15T01:35:46;94050.81;;;4.63;59.82
69524;BME280;56723;42.694;23.286;2023-03-15T01:38:14;94044.50;;;4.57;60.29
69524;BME280;56723;42.694;23.286;2023-03-15T01:40:43;94043.72;;;4.57;60.57
69524;BME280;56723;42.694;23.286;2023-03-15T01:43:15;94040.34;;;4.56;60.52
69524;BME280;56723;42.694;23.286;2023-03-15T01:48:42;94039.88;;;4.61;59.98
69524;BME280;56723;42.694;23.286;2023-03-15T01:51:57;94030.91;;;4.65;59.39
69524;BME280;56723;42.694;23.286;2023-03-15T01:54:42;94019.69;;;4.66;59.38
69524;BME280;56723;42.694;23.286;2023-03-15T01:57:23;94018.25;;;4.63;60.01
69524;BME280;56723;42.694;23.286;2023-03-15T02:00:22;94022.25;;;4.66;60.18
69524;BME280;56723;42.694;23.286;2023-03-15T02:03:17;94014.25;;;4.69;60.05
69524;BME280;56723;42.694;23.286;2023-03-15T02:05:53;94014.91;;;4.71;59.52
69524;BME280;56723;42.694;23.286;2023-03-15T02:08:38;94007.84;;;4.73;60.11
69524;BME280;56723;42.694;23.286;2023-03-15T02:11:05;93994.50;;;4.61;61.09
69524;BME280;56723;42.694;23.286;2023-03-15T02:13:33;94003.78;;;4.54;60.71
69524;BME280;56723;42.694;23.286;2023-03-15T02:16:06;93988.00;;;4.41;60.72
69524;BME280;56723;42.694;23.286;2023-03-15T02:18:56;93992.63;;;4.37;61.23
69524;BME280;56723;42.694;23.286;2023-03-15T02:21:32;93990.38;;;4.34;62.14
69524;BME280;56723;42.694;23.286;2023-03-15T02:24:07;93999.97;;;4.32;61.79
69524;BME280;56723;42.694;23.286;2023-03-15T02:26:41;93984.88;;;4.29;62.10
69524;BME280;56723;42.694;23.286;2023-03-15T02:29:09;93980.88;;;4.27;62.66
69524;BME280;56723;42.694;23.286;2023-03-15T02:31:37;93982.97;;;4.31;62.47
69524;BME280;56723;42.694;23.286;2023-03-15T02:34:05;93983.28;;;4.28;62.89
69524;BME280;56723;42.694;23.286;2023-03-15T02:36:35;93989.03;;;4.22;63.41
69524;BME280;56723;42.694;23.286;2023-03-15T02:39:15;93980.97;;;4.17;64.09
69524;BME280;56723;42.694;23.286;2023-03-15T02:41:56;93989.31;;;4.19;64.17
69524;BME280;56723;42.694;23.286;2023-03-15T02:44:34;93987.34;;;4.13;64.49
69524;BME280;56723;42.694;23.286;2023-03-15T02:47:24;93982.53;;;4.10;64.29
69524;BME280;56723;42.694;23.286;2023-03-15T02:49:53;93974.22;;;4.08;64.22
69524;BME280;56723;42.694;23.286;2023-03-15T02:52:21;93966.47;;;4.00;63.69
69524;BME280;56723;42.694;23.286;2023-03-15T02:54:48;93975.91;;;3.99;64.30
69524;BME280;56723;42.694;23.286;2023-03-15T02:57:17;93971.88;;;3.97;64.50
69524;BME280;56723;42.694;23.286;2023-03-15T02:59:45;93968.97;;;3.92;64.34
69524;BME280;56723;42.694;23.286;2023-03-15T03:02:13;93968.34;;;3.90;65.03
69524;BME280;56723;42.694;23.286;2023-03-15T03:04:41;93960.56;;;3.81;64.96
69524;BME280;56723;42.694;23.286;2023-03-15T03:07:08;93963.50;;;3.87;64.87
69524;BME280;56723;42.694;23.286;2023-03-15T03:09:58;93948.13;;;3.87;64.68
69524;BME280;56723;42.694;23.286;2023-03-15T03:12:26;93951.34;;;3.89;65.50
69524;BME280;56723;42.694;23.286;2023-03-15T03:14:53;93951.03;;;3.92;65.85
69524;BME280;56723;42.694;23.286;2023-03-15T03:17:23;93952.34;;;3.96;65.47
69524;BME280;56723;42.694;23.286;2023-03-15T03:19:50;93952.63;;;3.93;66.26
69524;BME280;56723;42.694;23.286;2023-03-15T03:22:23;93953.72;;;3.90;66.67
69524;BME280;56723;42.694;23.286;2023-03-15T03:24:50;93957.88;;;3.83;66.23
69524;BME280;56723;42.694;23.286;2023-03-15T03:27:18;93939.56;;;3.78;66.65
69524;BME280;56723;42.694;23.286;2023-03-15T03:29:45;93934.94;;;3.81;66.89
69524;BME280;56723;42.694;23.286;2023-03-15T03:32:14;93935.53;;;3.75;68.04
69524;BME280;56723;42.694;23.286;2023-03-15T03:34:41;93939.06;;;3.74;68.15
69524;BME280;56723;42.694;23.286;2023-03-15T03:37:19;93938.59;;;3.71;68.06
69524;BME280;56723;42.694;23.286;2023-03-15T03:39:55;93928.81;;;3.74;67.89
69524;BME280;56723;42.694;23.286;2023-03-15T03:42:22;93922.88;;;3.74;67.94
69524;BME280;56723;42.694;23.286;2023-03-15T03:44:49;93912.75;;;3.64;68.20
69524;BME280;56723;42.694;23.286;2023-03-15T03:47:18;93919.47;;;3.65;67.81
69524;BME280;56723;42.694;23.286;2023-03-15T03:49:44;93926.88;;;3.68;68.02
69524;BME280;56723;42.694;23.286;2023-03-15T03:52:11;93929.09;;;3.71;67.54
69524;BME280;56723;42.694;23.286;2023-03-15T03:54:38;93922.09;;;3.73;67.18
69524;BME280;56723;42.694;23.286;2023-03-15T03:57:06;93921.13;;;3.74;67.30
69524;BME280;56723;42.694;23.286;2023-03-15T03:59:34;93917.97;;;3.80;67.46
69524;BME280;56723;42.694;23.286;2023-03-15T04:02:03;93910.94;;;3.82;67.04
69524;BME280;56723;42.694;23.286;2023-03-15T04:04:30;93911.31;;;3.88;67.71
69524;BME280;56723;42.694;23.286;2023-03-15T04:06:58;93901.84;;;3.88;67.97
69524;BME280;56723;42.694;23.286;2023-03-15T04:09:31;93897.34;;;3.90;67.30
69524;BME280;56723;42.694;23.286;2023-03-15T04:11:57;93906.84;;;3.90;67.01
69524;BME280;56723;42.694;23.286;2023-03-15T04:14:24;93896.59;;;3.90;67.13
69524;BME280;56723;42.694;23.286;2023-03-15T04:16:51;93902.31;;;3.92;66.97
69524;BME280;56723;42.694;23.286;2023-03-15T04:19:21;93904.59;;;3.95;66.66
69524;BME280;56723;42.694;23.286;2023-03-15T04:21:49;93902.81;;;3.87;66.35
69524;BME280;56723;42.694;23.286;2023-03-15T04:24:36;93913.88;;;3.88;68.05
69524;BME280;56723;42.694;23.286;2023-03-15T04:27:12;93908.09;;;3.86;66.96
69524;BME280;56723;42.694;23.286;2023-03-15T04:29:58;93895.06;;;3.79;65.51
69524;BME280;56723;42.694;23.286;2023-03-15T04:32:25;93903.41;;;3.81;66.60
69524;BME280;56723;42.694;23.286;2023-03-15T04:35:07;93896.53;;;3.81;66.04
69524;BME280;56723;42.694;23.286;2023-03-15T04:37:44;93895.06;;;3.79;65.07
69524;BME280;56723;42.694;23.286;2023-03-15T05:33:54;93881.13;;;4.07;57.47
69524;BME280;56723;42.694;23.286;2023-03-15T05:36:50;93880.94;;;4.09;57.97
69524;BME280;56723;42.694;23.286;2023-03-15T05:39:49;93884.97;;;4.11;57.55
69524;BME280;56723;42.694;23.286;2023-03-15T05:42:37;93890.59;;;4.15;57.51
69524;BME280;56723;42.694;23.286;2023-03-15T05:45:24;93882.75;;;4.16;57.51
69524;BME280;56723;42.694;23.286;2023-03-15T05:48:10;93874.91;;;4.18;57.10
69524;BME280;56723;42.694;23.286;2023-03-15T05:51:02;93870.44;;;4.28;55.92
69524;BME280;56723;42.694;23.286;2023-03-15T05:53:40;93871.75;;;4.32;55.17
69524;BME280;56723;42.694;23.286;2023-03-15T05:56:25;93876.28;;;4.38;55.29
69524;BME280;56723;42.694;23.286;2023-03-15T05:59:20;93872.75;;;4.39;54.64
69524;BME280;56723;42.694;23.286;2023-03-15T06:02:06;93869.22;;;4.48;53.74
69524;BME280;56723;42.694;23.286;2023-03-15T06:04:41;93874.41;;;4.57;53.19
69524;BME280;56723;42.694;23.286;2023-03-15T06:07:10;93880.53;;;4.64;51.93
69524;BME280;56723;42.694;23.286;2023-03-15T06:09:37;93874.75;;;4.70;51.61
69524;BME280;56723;42.694;23.286;2023-03-15T06:12:04;93874.44;;;4.81;50.83
69524;BME280;56723;42.694;23.286;2023-03-15T06:14:31;93877.34;;;4.94;53.01
69524;BME280;56723;42.694;23.286;2023-03-15T06:17:04;93869.66;;;5.18;50.48
69524;BME280;56723;42.694;23.286;2023-03-15T06:19:31;93883.31;;;5.35;47.77
69524;BME280;56723;42.694;23.286;2023-03-15T06:21:58;93877.34;;;5.43;46.52
69524;BME280;56723;42.694;23.286;2023-03-15T06:24:35;93893.25;;;5.46;45.98
69524;BME280;56723;42.694;23.286;2023-03-15T06:27:02;93889.06;;;5.53;46.53
69524;BME280;56723;42.694;23.286;2023-03-15T06:29:29;93883.09;;;5.61;46.14
69524;BME280;56723;42.694;23.286;2023-03-15T06:31:57;93866.56;;;5.72;45.62
69524;BME280;56723;42.694;23.286;2023-03-15T06:34:26;93875.03;;;5.80;45.59
69524;BME280;56723;42.694;23.286;2023-03-15T06:36:53;93861.22;;;5.81;45.16
69524;BME280;56723;42.694;23.286;2023-03-15T06:39:21;93855.44;;;5.87;45.41
69524;BME280;56723;42.694;23.286;2023-03-15T06:41:50;93858.34;;;5.93;45.20
69524;BME280;56723;42.694;23.286;2023-03-15T06:44:21;93874.72;;;6.00;45.16
69524;BME280;56723;42.694;23.286;2023-03-15T06:46:53;93859.28;;;6.00;44.72
69524;BME280;56723;42.694;23.286;2023-03-15T06:49:20;93859.56;;;6.13;45.10
69524;BME280;56723;42.694;23.286;2023-03-15T06:51:47;93848.28;;;6.22;44.67
69524;BME280;56723;42.694;23.286;2023-03-15T06:54:14;93852.41;;;6.31;45.54
69524;BME280;56723;42.694;23.286;2023-03-15T06:56:42;93870.31;;;6.55;45.97
69524;BME280;56723;42.694;23.286;2023-03-15T06:59:09;93840.78;;;6.43;44.29
69524;BME280;56723;42.694;23.286;2023-03-15T07:01:37;93851.38;;;6.48;43.95
69524;BME280;56723;42.694;23.286;2023-03-15T07:04:04;93849.72;;;6.55;44.00
69524;BME280;56723;42.694;23.286;2023-03-15T07:06:34;93856.38;;;6.73;43.63
69524;BME280;56723;42.694;23.286;2023-03-15T07:09:02;93852.16;;;6.80;43.85
69524;BME280;56723;42.694;23.286;2023-03-15T07:11:31;93853.66;;;6.97;47.83
69524;BME280;56723;42.694;23.286;2023-03-15T07:13:58;93850.63;;;7.16;48.96
69524;BME280;56723;42.694;23.286;2023-03-15T07:16:25;93844.81;;;7.37;43.48
69524;BME280;56723;42.694;23.286;2023-03-15T07:18:53;93844.22;;;7.50;45.40
69524;BME280;56723;42.694;23.286;2023-03-15T07:21:22;93843.19;;;7.59;42.06
69524;BME280;56723;42.694;23.286;2023-03-15T07:23:49;93844.78;;;7.60;41.64
69524;BME280;56723;42.694;23.286;2023-03-15T07:26:15;93850.06;;;7.44;42.31
69524;BME280;56723;42.694;23.286;2023-03-15T07:28:42;93858.06;;;7.49;41.49
69524;BME280;56723;42.694;23.286;2023-03-15T07:31:11;93857.72;;;7.52;43.21
69524;BME280;56723;42.694;23.286;2023-03-15T07:33:38;93858.63;;;7.59;42.33
69524;BME280;56723;42.694;23.286;2023-03-15T07:36:06;93844.84;;;7.67;41.98
69524;BME280;56723;42.694;23.286;2023-03-15T07:38:34;93824.50;;;7.72;43.16
69524;BME280;56723;42.694;23.286;2023-03-15T07:41:03;93839.00;;;7.87;41.78
69524;BME280;56723;42.694;23.286;2023-03-15T07:43:31;93836.09;;;7.90;41.36
69524;BME280;56723;42.694;23.286;2023-03-15T07:46:12;93851.56;;;7.90;40.72
69524;BME280;56723;42.694;23.286;2023-03-15T07:48:39;93849.44;;;7.94;40.88
69524;BME280;56723;42.694;23.286;2023-03-15T07:51:06;93835.63;;;7.87;41.44
69524;BME280;56723;42.694;23.286;2023-03-15T07:53:33;93836.09;;;7.90;41.32
69524;BME280;56723;42.694;23.286;2023-03-15T07:56:00;93834.19;;;7.84;41.53
69524;BME280;56723;42.694;23.286;2023-03-15T07:58:27;93830.38;;;7.80;41.75
69524;BME280;56723;42.694;23.286;2023-03-15T08:00:54;93829.59;;;7.94;41.84
69524;BME280;56723;42.694;23.286;2023-03-15T08:03:23;93823.97;;;8.06;41.87
69524;BME280;56723;42.694;23.286;2023-03-15T08:05:50;93827.34;;;8.21;41.30
69524;BME280;56723;42.694;23.286;2023-03-15T08:08:17;93826.00;;;8.25;40.67
69524;BME280;56723;42.694;23.286;2023-03-15T08:10:44;93829.69;;;8.16;40.60
69524;BME280;56723;42.694;23.286;2023-03-15T08:13:12;93833.31;;;8.07;40.99
69524;BME280;56723;42.694;23.286;2023-03-15T08:15:39;93825.22;;;8.10;40.73
69524;BME280;56723;42.694;23.286;2023-03-15T08:18:07;93803.50;;;8.19;40.79
69524;BME280;56723;42.694;23.286;2023-03-15T08:20:33;93798.78;;;8.22;40.41
69524;BME280;56723;42.694;23.286;2023-03-15T08:23:01;93811.69;;;8.37;40.83
69524;BME280;56723;42.694;23.286;2023-03-15T08:25:28;93800.91;;;8.48;39.50
69524;BME280;56723;42.694;23.286;2023-03-15T08:27:55;93821.88;;;8.60;39.64
69524;BME280;56723;42.694;23.286;2023-03-15T08:30:22;93810.88;;;8.73;40.67
69524;BME280;56723;42.694;23.286;2023-03-15T08:32:50;93809.47;;;8.91;42.08
69524;BME280;56723;42.694;23.286;2023-03-15T08:35:20;93805.72;;;9.15;39.88
69524;BME280;56723;42.694;23.286;2023-03-15T08:37:48;93793.91;;;9.27;40.53
69524;BME280;56723;42.694;23.286;2023-03-15T08:40:17;93804.53;;;9.39;39.50
69524;BME280;56723;42.694;23.286;2023-03-15T08:42:50;93799.53;;;9.37;38.72
69524;BME280;56723;42.694;23.286;2023-03-15T08:45:18;93795.59;;;9.42;38.82
69524;BME280;56723;42.694;23.286;2023-03-15T08:47:45;93788.53;;;9.57;39.42
69524;BME280;56723;42.694;23.286;2023-03-15T08:50:13;93786.66;;;9.72;39.20
69524;BME280;56723;42.694;23.286;2023-03-15T08:52:41;93788.72;;;9.83;38.71
69524;BME280;56723;42.694;23.286;2023-03-15T08:55:09;93794.75;;;9.97;39.18
69524;BME280;56723;42.694;23.286;2023-03-15T08:57:40;93787.81;;;10.04;38.50
69524;BME280;56723;42.694;23.286;2023-03-15T09:00:08;93797.59;;;10.08;37.92
69524;BME280;56723;42.694;23.286;2023-03-15T09:02:35;93804.97;;;10.12;37.74
69524;BME280;56723;42.694;23.286;2023-03-15T09:05:03;93791.06;;;10.13;38.15
69524;BME280;56723;42.694;23.286;2023-03-15T09:07:33;93793.88;;;10.18;38.37
69524;BME280;56723;42.694;23.286;2023-03-15T09:10:00;93779.34;;;10.17;38.69
69524;BME280;56723;42.694;23.286;2023-03-15T09:12:30;93793.34;;;10.29;38.34
69524;BME280;56723;42.694;23.286;2023-03-15T09:14:57;93779.56;;;10.22;38.17
69524;BME280;56723;42.694;23.286;2023-03-15T09:17:24;93794.19;;;10.01;38.53
69524;BME280;56723;42.694;23.286;2023-03-15T09:19:51;93783.88;;;9.73;39.16
69524;BME280;56723;42.694;23.286;2023-03-15T09:22:18;93793.78;;;9.70;39.45
69524;BME280;56723;42.694;23.286;2023-03-15T09:25:04;93797.28;;;9.56;39.45
69524;BME280;56723;42.694;23.286;2023-03-15T09:27:31;93790.09;;;9.51;39.85
69524;BME280;56723;42.694;23.286;2023-03-15T09:29:58;93775.72;;;9.42;39.78
69524;BME280;56723;42.694;23.286;2023-03-15T09:32:26;93792.03;;;9.43;39.85
69524;BME280;56723;42.694;23.286;2023-03-15T09:34:53;93790.44;;;9.42;40.21
69524;BME280;56723;42.694;23.286;2023-03-15T09:37:20;93781.16;;;9.54;40.22
69524;BME280;56723;42.694;23.286;2023-03-15T09:39:47;93772.72;;;9.73;40.19
69524;BME280;56723;42.694;23.286;2023-03-15T09:48:11;93773.44;;;10.29;38.82
69524;BME280;56723;42.694;23.286;2023-03-15T09:50:45;93768.44;;;10.28;38.91
69524;BME280;56723;42.694;23.286;2023-03-15T09:53:22;93756.09;;;10.30;39.12
69524;BME280;56723;42.694;23.286;2023-03-15T09:55:50;93755.13;;;10.31;38.58
69524;BME280;56723;42.694;23.286;2023-03-15T09:58:23;93748.72;;;10.27;38.83
69524;BME280;56723;42.694;23.286;2023-03-15T10:00:58;93752.06;;;10.21;38.68
69524;BME280;56723;42.694;23.286;2023-03-15T10:03:40;93765.13;;;9.99;39.61
69524;BME280;56723;42.694;23.286;2023-03-15T10:06:16;93767.28;;;10.02;40.57
69524;BME280;56723;42.694;23.286;2023-03-15T10:08:56;93748.19;;;9.97;39.20
69524;BME280;56723;42.694;23.286;2023-03-15T10:14:20;93760.22;;;10.18;39.30
69524;BME280;56723;42.694;23.286;2023-03-15T10:16:50;93768.63;;;10.26;38.83
69524;BME280;56723;42.694;23.286;2023-03-15T10:24:53;93766.50;;;10.36;39.20
69524;BME280;56723;42.694;23.286;2023-03-15T10:30:23;93753.53;;;10.30;39.10
69524;BME280;56723;42.694;23.286;2023-03-15T10:32:57;93752.16;;;10.34;38.78
69524;BME280;56723;42.694;23.286;2023-03-15T10:35:25;93741.75;;;10.27;39.08
69524;BME280;56723;42.694;23.286;2023-03-15T10:37:53;93745.97;;;10.35;39.07
69524;BME280;56723;42.694;23.286;2023-03-15T10:43:24;93758.53;;;10.38;38.56
69524;BME280;56723;42.694;23.286;2023-03-15T10:46:03;93759.53;;;10.37;38.87
69524;BME280;56723;42.694;23.286;2023-03-15T10:48:34;93749.78;;;10.39;39.09
69524;BME280;56723;42.694;23.286;2023-03-15T10:51:46;93747.19;;;10.39;38.70
69524;BME280;56723;42.694;23.286;2023-03-15T10:59:16;93755.91;;;10.31;39.41
69524;BME280;56723;42.694;23.286;2023-03-15T11:01:46;93748.72;;;10.27;39.15
69524;BME280;56723;42.694;23.286;2023-03-15T11:09:22;93748.38;;;10.36;39.03
69524;BME280;56723;42.694;23.286;2023-03-15T11:12:05;93747.97;;;10.39;38.79
69524;BME280;56723;42.694;23.286;2023-03-15T11:14:39;93734.41;;;10.31;38.86
69524;BME280;56723;42.694;23.286;2023-03-15T11:17:15;93745.59;;;10.38;38.72
69524;BME280;56723;42.694;23.286;2023-03-15T11:22:41;93739.19;;;10.40;39.97
69524;BME280;56723;42.694;23.286;2023-03-15T11:25:15;93747.19;;;10.39;38.97
69524;BME280;56723;42.694;23.286;2023-03-15T11:27:43;93738.81;;;10.37;39.11
69524;BME280;56723;42.694;23.286;2023-03-15T11:30:12;93750.34;;;10.41;39.22
69524;BME280;56723;42.694;23.286;2023-03-15T11:32:40;93750.97;;;10.43;39.49
69524;BME280;56723;42.694;23.286;2023-03-15T11:38:40;93746.97;;;10.34;39.72
69524;BME280;56723;42.694;23.286;2023-03-15T11:41:01;93732.06;;;9.95;42.83
69524;BME280;56723;42.694;23.286;2023-03-15T11:51:32;93740.78;;;9.53;50.20
69524;BME280;56723;42.694;23.286;2023-03-15T11:54:05;93740.53;;;9.48;50.85
69524;BME280;56723;42.694;23.286;2023-03-15T11:56:56;93730.44;;;9.53;51.89
69524;BME280;56723;42.694;23.286;2023-03-15T11:59:36;93734.13;;;9.37;51.76
69524;BME280;56723;42.694;23.286;2023-03-15T12:04:45;93727.09;;;9.31;52.05
69524;BME280;56723;42.694;23.286;2023-03-15T12:10:41;93720.94;;;9.25;51.65
69524;BME280;56723;42.694;23.286;2023-03-15T12:12:47;93722.03;;;9.44;52.02
69524;BME280;56723;42.694;23.286;2023-03-15T12:17:55;93714.84;;;9.40;50.42
69524;BME280;56723;42.694;23.286;2023-03-15T12:20:36;93719.84;;;9.41;52.20
69524;BME280;56723;42.694;23.286;2023-03-15T12:26:05;93711.78;;;9.29;53.18
69524;BME280;56723;42.694;23.286;2023-03-15T12:31:07;93712.78;;;9.28;53.06
69524;BME280;56723;42.694;23.286;2023-03-15T12:33:49;93713.91;;;9.19;54.45
69524;BME280;56723;42.694;23.286;2023-03-15T12:36:33;93710.53;;;9.19;54.76
69524;BME280;56723;42.694;23.286;2023-03-15T12:39:20;93689.25;;;9.17;53.60
69524;BME280;56723;42.694;23.286;2023-03-15T12:41:49;93693.84;;;9.21;52.65
69524;BME280;56723;42.694;23.286;2023-03-15T12:44:38;93705.63;;;9.30;50.28
69524;BME280;56723;42.694;23.286;2023-03-15T12:47:10;93703.22;;;9.22;51.07
69524;BME280;56723;42.694;23.286;2023-03-15T12:49:42;93700.88;;;9.27;49.76
69524;BME280;56723;42.694;23.286;2023-03-15T12:54:46;93699.09;;;9.34;48.88
69524;BME280;56723;42.694;23.286;2023-03-15T12:57:20;93692.50;;;9.32;47.76
69524;BME280;56723;42.694;23.286;2023-03-15T13:03:06;93679.72;;;9.17;47.87
69524;BME280;56723;42.694;23.286;2023-03-15T13:19:05;93677.06;;;9.11;46.99
69524;BME280;56723;42.694;23.286;2023-03-15T13:22:01;93683.66;;;9.13;46.77
69524;BME280;56723;42.694;23.286;2023-03-15T13:30:27;93691.28;;;9.21;46.83
69524;BME280;56723;42.694;23.286;2023-03-15T13:35:43;93694.03;;;9.20;47.18
69524;BME280;56723;42.694;23.286;2023-03-15T13:38:24;93700.06;;;9.27;47.44
69524;BME280;56723;42.694;23.286;2023-03-15T13:40:53;93695.25;;;9.24;47.33
69524;BME280;56723;42.694;23.286;2023-03-15T13:43:35;93697.66;;;9.25;47.69
69524;BME280;56723;42.694;23.286;2023-03-15T13:46:03;93696.47;;;9.28;48.00
69524;BME280;56723;42.694;23.286;2023-03-15T13:48:36;93703.94;;;9.16;48.42
69524;BME280;56723;42.694;23.286;2023-03-15T13:51:25;93705.91;;;9.14;48.87
69524;BME280;56723;42.694;23.286;2023-03-15T13:53:55;93706.09;;;9.06;50.28
69524;BME280;56723;42.694;23.286;2023-03-15T13:56:32;93698.31;;;9.06;50.79
69524;BME280;56723;42.694;23.286;2023-03-15T13:59:14;93710.91;;;8.88;51.58
69524;BME280;56723;42.694;23.286;2023-03-15T14:01:41;93712.88;;;8.86;52.69
69524;BME280;56723;42.694;23.286;2023-03-15T14:04:15;93714.34;;;8.74;53.81
69524;BME280;56723;42.694;23.286;2023-03-15T14:06:43;93715.84;;;8.61;54.89
69524;BME280;56723;42.694;23.286;2023-03-15T14:09:23;93720.13;;;8.54;56.15
69524;BME280;56723;42.694;23.286;2023-03-15T14:12:03;93706.81;;;8.51;56.65
69524;BME280;56723;42.694;23.286;2023-03-15T14:14:35;93714.97;;;8.54;57.60
69524;BME280;56723;42.694;23.286;2023-03-15T14:17:16;93706.22;;;8.55;57.63
69524;BME280;56723;42.694;23.286;2023-03-15T14:19:54;93693.75;;;8.38;58.23
69524;BME280;56723;42.694;23.286;2023-03-15T14:22:21;93717.44;;;8.26;59.35
69524;BME280;56723;42.694;23.286;2023-03-15T14:24:50;93707.94;;;8.27;59.59
69524;BME280;56723;42.694;23.286;2023-03-15T14:27:23;93719.31;;;8.18;60.05
69524;BME280;56723;42.694;23.286;2023-03-15T14:29:51;93716.06;;;8.09;60.90
69524;BME280;56723;42.694;23.286;2023-03-15T14:32:31;93709.50;;;8.07;61.36
69524;BME280;56723;42.694;23.286;2023-03-15T14:35:23;93701.84;;;8.13;61.24
69524;BME280;56723;42.694;23.286;2023-03-15T14:38:17;93699.97;;;8.07;61.83
69524;BME280;56723;42.694;23.286;2023-03-15T14:40:47;93699.00;;;8.08;62.48
69524;BME280;56723;42.694;23.286;2023-03-15T14:43:14;93695.34;;;8.03;62.97
69524;BME280;56723;42.694;23.286;2023-03-15T14:45:44;93711.34;;;8.13;62.82
69524;BME280;56723;42.694;23.286;2023-03-15T14:48:27;93705.44;;;8.19;62.95
69524;BME280;56723;42.694;23.286;2023-03-15T14:50:55;93700.69;;;8.16;62.89
69524;BME280;56723;42.694;23.286;2023-03-15T14:53:24;93708.59;;;8.14;63.17
69524;BME280;56723;42.694;23.286;2023-03-15T14:55:52;93703.03;;;8.17;63.22
69524;BME280;56723;42.694;23.286;2023-03-15T14:58:20;93707.53;;;8.09;64.14
69524;BME280;56723;42.694;23.286;2023-03-15T15:00:50;93706.00;;;8.14;64.52
69524;BME280;56723;42.694;23.286;2023-03-15T15:03:34;93707.09;;;8.05;65.27
69524;BME280;56723;42.694;23.286;2023-03-15T15:06:06;93700.16;;;8.06;65.05
69524;BME280;56723;42.694;23.286;2023-03-15T15:08:35;93698.91;;;8.02;65.46
69524;BME280;56723;42.694;23.286;2023-03-15T15:11:06;93701.63;;;7.93;65.88
69524;BME280;56723;42.694;23.286;2023-03-15T15:13:38;93711.19;;;7.99;65.91
69524;BME280;56723;42.694;23.286;2023-03-15T15:16:05;93701.63;;;7.93;65.99
69524;BME280;56723;42.694;23.286;2023-03-15T15:18:34;93710.88;;;7.88;66.24
69524;BME280;56723;42.694;23.286;2023-03-15T15:21:10;93718.91;;;7.78;66.98
69524;BME280;56723;42.694;23.286;2023-03-15T15:23:39;93714.31;;;7.80;67.01
69524;BME280;56723;42.694;23.286;2023-03-15T15:26:28;93718.28;;;7.76;67.49
69524;BME280;56723;42.694;23.286;2023-03-15T15:28:56;93715.78;;;7.68;68.15
69524;BME280;56723;42.694;23.286;2023-03-15T15:31:25;93716.75;;;7.67;68.75
69524;BME280;56723;42.694;23.286;2023-03-15T15:33:53;93723.50;;;7.68;68.63
69524;BME280;56723;42.694;23.286;2023-03-15T15:36:26;93718.72;;;7.65;69.01
69524;BME280;56723;42.694;23.286;2023-03-15T15:38:58;93729.19;;;7.63;69.39
69524;BME280;56723;42.694;23.286;2023-03-15T15:41:31;93733.81;;;7.68;69.37
69524;BME280;56723;42.694;23.286;2023-03-15T15:43:59;93727.34;;;7.72;69.32
69524;BME280;56723;42.694;23.286;2023-03-15T15:46:26;93733.81;;;7.68;70.02
69524;BME280;56723;42.694;23.286;2023-03-15T15:48:53;93732.66;;;7.71;69.46